Whitlash, Montana
Current Conditions -  °F | °C
As of 8:56 AM on Thursday 29 Jan 2015 (Local Time) from KCTB Reporting Station
Clear Clear  
Wind Chill: 21°   Ceiling: Unl
Heat Index: 21°   Visibility: 10mi
Dew Point: 20°   Wind: 3mph
Humidity: 96%   Direction: 220°SW
Pressure: 30.29"   Gusts: NA
Location:  48.91°N, 111.25°W
Report Text: KCTB 291556Z AUTO 22003KT 10SM CLR M06/M07 A3029 RMK AO2 SLP302 I1000 T10611067
Loading
Personal Weather Stations






























Interactive Weather Map New forecast layout! Learn more

10-Day Weather Forecast

Advertisements
Track Severe Weather on mobile